Terminal Aerodrome Forecast
Issued by NWS

Home | Current Version | Previous Version | Graphics & Text | Print | Product List | Glossary Off
Versions: 1 2 3 4 5 6 7 8 9 10 11 12 13 14 15 16 17 18 19 20 21 22 23

000
FTUS43 KDDC 220520
TAFHYS
TAF
KHYS 220520Z 2206/2306 21006KT P6SM SKC
     FM222100 10006KT P6SM VCTS SCT120CB SCT200
     FM230300 07008KT P6SM SCT200=

USA.gov is the U.S. government's official web portal to all federal, state and local government web resources and services.